sensor_id;sensor_type;location;lat;lon;timestamp;temperature;humidity
24384;DHT22;12504;52.870;8.798;2022-10-24T00:00:15;14.40;99.90
24384;DHT22;12504;52.870;8.798;2022-10-24T00:02:41;14.40;99.90
24384;DHT22;12504;52.870;8.798;2022-10-24T00:05:07;14.30;99.90
24384;DHT22;12504;52.870;8.798;2022-10-24T00:07:32;14.30;99.90
24384;DHT22;12504;52.870;8.798;2022-10-24T00:09:58;14.30;99.90
24384;DHT22;12504;52.870;8.798;2022-10-24T00:12:23;14.30;99.90
24384;DHT22;12504;52.870;8.798;2022-10-24T00:14:49;14.30;99.90
24384;DHT22;12504;52.870;8.798;2022-10-24T00:17:15;14.20;99.90
24384;DHT22;12504;52.870;8.798;2022-10-24T00:19:40;14.20;99.90
24384;DHT22;12504;52.870;8.798;2022-10-24T00:22:06;14.20;99.90
24384;DHT22;12504;52.870;8.798;2022-10-24T00:24:31;14.20;99.90
24384;DHT22;12504;52.870;8.798;2022-10-24T00:26:57;14.20;99.90
24384;DHT22;12504;52.870;8.798;2022-10-24T00:29:22;14.20;99.90
24384;DHT22;12504;52.870;8.798;2022-10-24T00:31:48;14.20;99.90
24384;DHT22;12504;52.870;8.798;2022-10-24T00:34:14;14.20;99.90
24384;DHT22;12504;52.870;8.798;2022-10-24T00:36:40;14.20;99.90
24384;DHT22;12504;52.870;8.798;2022-10-24T00:39:06;14.10;99.90
24384;DHT22;12504;52.870;8.798;2022-10-24T00:41:34;14.10;99.90
24384;DHT22;12504;52.870;8.798;2022-10-24T00:46:38;14.20;99.90
24384;DHT22;12504;52.870;8.798;2022-10-24T00:49:07;14.10;99.90
24384;DHT22;12504;52.870;8.798;2022-10-24T00:51:36;14.10;99.90
24384;DHT22;12504;52.870;8.798;2022-10-24T00:54:03;14.10;99.90
24384;DHT22;12504;52.870;8.798;2022-10-24T00:56:31;14.00;99.90
24384;DHT22;12504;52.870;8.798;2022-10-24T00:58:58;14.00;99.90
24384;DHT22;12504;52.870;8.798;2022-10-24T01:01:25;13.90;99.90
24384;DHT22;12504;52.870;8.798;2022-10-24T01:03:51;13.90;99.90
24384;DHT22;12504;52.870;8.798;2022-10-24T01:11:34;13.90;99.90
24384;DHT22;12504;52.870;8.798;2022-10-24T01:14:06;13.80;99.90
24384;DHT22;12504;52.870;8.798;2022-10-24T01:16:47;13.80;99.90
24384;DHT22;12504;52.870;8.798;2022-10-24T01:19:21;13.80;99.90
24384;DHT22;12504;52.870;8.798;2022-10-24T01:21:52;13.80;99.90
24384;DHT22;12504;52.870;8.798;2022-10-24T01:29:44;13.60;99.90
24384;DHT22;12504;52.870;8.798;2022-10-24T01:32:22;13.60;99.90
24384;DHT22;12504;52.870;8.798;2022-10-24T01:34:56;13.50;99.90
24384;DHT22;12504;52.870;8.798;2022-10-24T01:39:56;13.40;99.90
24384;DHT22;12504;52.870;8.798;2022-10-24T01:42:23;13.30;99.90
24384;DHT22;12504;52.870;8.798;2022-10-24T01:44:52;13.30;99.90
24384;DHT22;12504;52.870;8.798;2022-10-24T01:47:30;13.20;99.90
24384;DHT22;12504;52.870;8.798;2022-10-24T01:49:59;13.10;99.90
24384;DHT22;12504;52.870;8.798;2022-10-24T01:52:27;13.10;99.90
24384;DHT22;12504;52.870;8.798;2022-10-24T01:54:53;13.00;99.90
24384;DHT22;12504;52.870;8.798;2022-10-24T01:57:19;13.00;99.90
24384;DHT22;12504;52.870;8.798;2022-10-24T01:59:45;13.00;99.90
24384;DHT22;12504;52.870;8.798;2022-10-24T02:02:14;13.00;99.90
24384;DHT22;12504;52.870;8.798;2022-10-24T02:04:49;12.90;99.90
24384;DHT22;12504;52.870;8.798;2022-10-24T02:07:16;12.90;99.90
24384;DHT22;12504;52.870;8.798;2022-10-24T02:09:43;12.90;99.90
24384;DHT22;12504;52.870;8.798;2022-10-24T02:12:11;12.90;99.90
24384;DHT22;12504;52.870;8.798;2022-10-24T02:14:40;13.00;99.90
24384;DHT22;12504;52.870;8.798;2022-10-24T02:17:08;13.00;99.90
24384;DHT22;12504;52.870;8.798;2022-10-24T02:19:33;12.90;99.90
24384;DHT22;12504;52.870;8.798;2022-10-24T02:27:15;12.90;99.90
24384;DHT22;12504;52.870;8.798;2022-10-24T02:32:08;12.80;99.90
24384;DHT22;12504;52.870;8.798;2022-10-24T02:34:34;12.90;99.90
24384;DHT22;12504;52.870;8.798;2022-10-24T02:37:01;12.80;99.90
24384;DHT22;12504;52.870;8.798;2022-10-24T02:39:27;12.80;99.90
24384;DHT22;12504;52.870;8.798;2022-10-24T02:41:54;12.80;99.90
24384;DHT22;12504;52.870;8.798;2022-10-24T02:44:20;12.80;99.90
24384;DHT22;12504;52.870;8.798;2022-10-24T02:46:46;12.80;99.90
24384;DHT22;12504;52.870;8.798;2022-10-24T02:49:12;12.90;99.90
24384;DHT22;12504;52.870;8.798;2022-10-24T02:51:38;12.80;99.90
24384;DHT22;12504;52.870;8.798;2022-10-24T02:54:05;12.80;99.90
24384;DHT22;12504;52.870;8.798;2022-10-24T02:56:30;12.80;99.90
24384;DHT22;12504;52.870;8.798;2022-10-24T02:58:56;12.80;99.90
24384;DHT22;12504;52.870;8.798;2022-10-24T03:01:22;12.70;99.90
24384;DHT22;12504;52.870;8.798;2022-10-24T03:03:48;12.70;99.90
24384;DHT22;12504;52.870;8.798;2022-10-24T03:06:13;12.70;99.90
24384;DHT22;12504;52.870;8.798;2022-10-24T03:08:39;12.70;99.90
24384;DHT22;12504;52.870;8.798;2022-10-24T03:11:04;12.80;99.90
24384;DHT22;12504;52.870;8.798;2022-10-24T03:13:30;12.80;99.90
24384;DHT22;12504;52.870;8.798;2022-10-24T03:15:56;12.80;99.90
24384;DHT22;12504;52.870;8.798;2022-10-24T03:18:22;12.70;99.90
24384;DHT22;12504;52.870;8.798;2022-10-24T03:20:47;12.60;99.90
24384;DHT22;12504;52.870;8.798;2022-10-24T03:23:16;12.50;99.90
24384;DHT22;12504;52.870;8.798;2022-10-24T03:25:44;12.30;99.90
24384;DHT22;12504;52.870;8.798;2022-10-24T03:28:09;12.20;99.90
24384;DHT22;12504;52.870;8.798;2022-10-24T03:30:35;12.20;99.90
24384;DHT22;12504;52.870;8.798;2022-10-24T03:33:00;12.30;99.90
24384;DHT22;12504;52.870;8.798;2022-10-24T03:35:26;12.20;99.90
24384;DHT22;12504;52.870;8.798;2022-10-24T03:37:51;12.30;99.90
24384;DHT22;12504;52.870;8.798;2022-10-24T03:40:17;12.40;99.90
24384;DHT22;12504;52.870;8.798;2022-10-24T03:42:42;12.40;99.90
24384;DHT22;12504;52.870;8.798;2022-10-24T03:45:08;12.40;99.90
24384;DHT22;12504;52.870;8.798;2022-10-24T03:47:34;12.40;99.90
24384;DHT22;12504;52.870;8.798;2022-10-24T03:50:00;12.40;99.90
24384;DHT22;12504;52.870;8.798;2022-10-24T03:52:26;12.40;99.90
24384;DHT22;12504;52.870;8.798;2022-10-24T03:54:52;12.40;99.90
24384;DHT22;12504;52.870;8.798;2022-10-24T03:57:17;12.40;99.90
24384;DHT22;12504;52.870;8.798;2022-10-24T03:59:43;12.40;99.90
24384;DHT22;12504;52.870;8.798;2022-10-24T04:02:09;12.40;99.90
24384;DHT22;12504;52.870;8.798;2022-10-24T04:04:34;12.40;99.90
24384;DHT22;12504;52.870;8.798;2022-10-24T04:07:00;12.40;99.90
24384;DHT22;12504;52.870;8.798;2022-10-24T04:09:26;12.30;99.90
24384;DHT22;12504;52.870;8.798;2022-10-24T04:11:51;12.30;99.90
24384;DHT22;12504;52.870;8.798;2022-10-24T04:14:18;12.20;99.90
24384;DHT22;12504;52.870;8.798;2022-10-24T04:16:44;12.20;99.90
24384;DHT22;12504;52.870;8.798;2022-10-24T04:19:09;12.20;99.90
24384;DHT22;12504;52.870;8.798;2022-10-24T04:21:35;12.20;99.90
24384;DHT22;12504;52.870;8.798;2022-10-24T04:24:01;12.20;99.90
24384;DHT22;12504;52.870;8.798;2022-10-24T04:26:27;12.20;99.90
24384;DHT22;12504;52.870;8.798;2022-10-24T04:28:53;12.10;99.90
24384;DHT22;12504;52.870;8.798;2022-10-24T04:31:18;12.10;99.90
24384;DHT22;12504;52.870;8.798;2022-10-24T04:33:47;12.10;99.90
24384;DHT22;12504;52.870;8.798;2022-10-24T04:36:13;12.20;99.90
24384;DHT22;12504;52.870;8.798;2022-10-24T04:38:38;12.20;99.90
24384;DHT22;12504;52.870;8.798;2022-10-24T04:41:04;12.20;99.90
24384;DHT22;12504;52.870;8.798;2022-10-24T04:43:29;12.30;99.90
24384;DHT22;12504;52.870;8.798;2022-10-24T04:45:55;12.30;99.90
24384;DHT22;12504;52.870;8.798;2022-10-24T04:48:21;12.40;99.90
24384;DHT22;12504;52.870;8.798;2022-10-24T04:50:46;12.50;99.90
24384;DHT22;12504;52.870;8.798;2022-10-24T04:53:12;12.50;99.90
24384;DHT22;12504;52.870;8.798;2022-10-24T04:55:38;12.50;99.90
24384;DHT22;12504;52.870;8.798;2022-10-24T04:58:04;12.60;99.90
24384;DHT22;12504;52.870;8.798;2022-10-24T05:00:29;12.70;99.90
24384;DHT22;12504;52.870;8.798;2022-10-24T05:02:55;12.80;99.90
24384;DHT22;12504;52.870;8.798;2022-10-24T05:05:20;12.80;99.90
24384;DHT22;12504;52.870;8.798;2022-10-24T05:07:46;12.90;99.90
24384;DHT22;12504;52.870;8.798;2022-10-24T05:10:12;13.00;99.90
24384;DHT22;12504;52.870;8.798;2022-10-24T05:12:38;13.00;99.90
24384;DHT22;12504;52.870;8.798;2022-10-24T05:15:04;13.00;99.90
24384;DHT22;12504;52.870;8.798;2022-10-24T05:17:30;13.10;99.90
24384;DHT22;12504;52.870;8.798;2022-10-24T05:19:56;13.20;99.90
24384;DHT22;12504;52.870;8.798;2022-10-24T05:22:22;13.30;99.90
24384;DHT22;12504;52.870;8.798;2022-10-24T05:24:48;13.30;99.90
24384;DHT22;12504;52.870;8.798;2022-10-24T05:27:14;13.50;99.90
24384;DHT22;12504;52.870;8.798;2022-10-24T05:29:39;13.60;99.90
24384;DHT22;12504;52.870;8.798;2022-10-24T05:32:05;13.60;99.90
24384;DHT22;12504;52.870;8.798;2022-10-24T05:34:30;13.60;99.90
24384;DHT22;12504;52.870;8.798;2022-10-24T05:36:56;13.80;99.90
24384;DHT22;12504;52.870;8.798;2022-10-24T05:39:21;13.90;99.90
24384;DHT22;12504;52.870;8.798;2022-10-24T05:41:47;14.20;99.90
24384;DHT22;12504;52.870;8.798;2022-10-24T05:44:13;14.20;99.90
24384;DHT22;12504;52.870;8.798;2022-10-24T05:46:38;14.20;99.90
24384;DHT22;12504;52.870;8.798;2022-10-24T05:49:04;14.20;99.90
24384;DHT22;12504;52.870;8.798;2022-10-24T05:51:30;14.10;99.90
24384;DHT22;12504;52.870;8.798;2022-10-24T05:53:56;14.10;99.90
24384;DHT22;12504;52.870;8.798;2022-10-24T05:56:23;14.20;99.90
24384;DHT22;12504;52.870;8.798;2022-10-24T05:58:49;14.20;99.90
24384;DHT22;12504;52.870;8.798;2022-10-24T06:01:14;14.20;99.90
24384;DHT22;12504;52.870;8.798;2022-10-24T06:03:40;14.20;99.90
24384;DHT22;12504;52.870;8.798;2022-10-24T06:06:06;14.10;99.90
24384;DHT22;12504;52.870;8.798;2022-10-24T06:08:33;14.20;99.90
24384;DHT22;12504;52.870;8.798;2022-10-24T06:10:58;14.20;99.90
24384;DHT22;12504;52.870;8.798;2022-10-24T06:13:24;14.10;99.90
24384;DHT22;12504;52.870;8.798;2022-10-24T06:15:50;14.20;99.90
24384;DHT22;12504;52.870;8.798;2022-10-24T06:18:15;14.20;99.90
24384;DHT22;12504;52.870;8.798;2022-10-24T06:20:41;14.00;99.90
24384;DHT22;12504;52.870;8.798;2022-10-24T06:23:06;14.00;99.90
24384;DHT22;12504;52.870;8.798;2022-10-24T06:25:32;14.10;99.90
24384;DHT22;12504;52.870;8.798;2022-10-24T06:27:58;14.20;99.90
24384;DHT22;12504;52.870;8.798;2022-10-24T06:30:24;14.10;99.90
24384;DHT22;12504;52.870;8.798;2022-10-24T06:32:49;14.10;99.90
24384;DHT22;12504;52.870;8.798;2022-10-24T06:35:15;14.30;99.90
24384;DHT22;12504;52.870;8.798;2022-10-24T06:37:41;14.30;99.90
24384;DHT22;12504;52.870;8.798;2022-10-24T06:40:07;14.40;99.90
24384;DHT22;12504;52.870;8.798;2022-10-24T06:42:33;14.40;99.90
24384;DHT22;12504;52.870;8.798;2022-10-24T06:44:58;14.30;99.90
24384;DHT22;12504;52.870;8.798;2022-10-24T06:47:24;14.40;99.90
24384;DHT22;12504;52.870;8.798;2022-10-24T06:49:50;14.30;99.90
24384;DHT22;12504;52.870;8.798;2022-10-24T06:52:15;14.10;99.90
24384;DHT22;12504;52.870;8.798;2022-10-24T06:54:41;14.30;99.90
24384;DHT22;12504;52.870;8.798;2022-10-24T06:57:08;14.20;99.90
24384;DHT22;12504;52.870;8.798;2022-10-24T06:59:33;14.30;99.90
24384;DHT22;12504;52.870;8.798;2022-10-24T07:01:59;14.30;99.90
24384;DHT22;12504;52.870;8.798;2022-10-24T07:04:24;14.30;99.90
24384;DHT22;12504;52.870;8.798;2022-10-24T07:06:50;14.30;99.90
24384;DHT22;12504;52.870;8.798;2022-10-24T07:09:16;14.40;99.90
24384;DHT22;12504;52.870;8.798;2022-10-24T07:11:42;14.30;99.90
24384;DHT22;12504;52.870;8.798;2022-10-24T07:14:08;14.30;99.90
24384;DHT22;12504;52.870;8.798;2022-10-24T07:16:34;14.50;99.90
24384;DHT22;12504;52.870;8.798;2022-10-24T07:19:00;14.50;99.90
24384;DHT22;12504;52.870;8.798;2022-10-24T07:21:27;14.60;99.90
24384;DHT22;12504;52.870;8.798;2022-10-24T07:23:53;14.60;99.90
24384;DHT22;12504;52.870;8.798;2022-10-24T07:26:19;14.80;99.90
24384;DHT22;12504;52.870;8.798;2022-10-24T07:28:45;14.80;99.90
24384;DHT22;12504;52.870;8.798;2022-10-24T07:31:18;14.90;99.90
24384;DHT22;12504;52.870;8.798;2022-10-24T07:33:44;14.90;99.90
24384;DHT22;12504;52.870;8.798;2022-10-24T07:36:13;14.90;99.90
24384;DHT22;12504;52.870;8.798;2022-10-24T07:38:39;14.80;99.90
24384;DHT22;12504;52.870;8.798;2022-10-24T07:41:05;15.00;99.90
24384;DHT22;12504;52.870;8.798;2022-10-24T07:43:31;14.90;99.90
24384;DHT22;12504;52.870;8.798;2022-10-24T07:45:57;14.90;99.90
24384;DHT22;12504;52.870;8.798;2022-10-24T07:48:22;15.00;99.90
24384;DHT22;12504;52.870;8.798;2022-10-24T07:50:48;15.00;99.90
24384;DHT22;12504;52.870;8.798;2022-10-24T07:53:14;15.30;99.90
24384;DHT22;12504;52.870;8.798;2022-10-24T07:55:40;15.20;99.90
24384;DHT22;12504;52.870;8.798;2022-10-24T07:58:06;15.30;99.90
24384;DHT22;12504;52.870;8.798;2022-10-24T08:00:33;15.20;99.90
24384;DHT22;12504;52.870;8.798;2022-10-24T08:02:58;15.60;99.90
24384;DHT22;12504;52.870;8.798;2022-10-24T08:05:25;15.50;99.90
24384;DHT22;12504;52.870;8.798;2022-10-24T08:07:51;15.60;99.90
24384;DHT22;12504;52.870;8.798;2022-10-24T08:10:16;15.70;99.90
24384;DHT22;12504;52.870;8.798;2022-10-24T08:12:42;15.80;99.90
24384;DHT22;12504;52.870;8.798;2022-10-24T08:15:08;16.00;99.90
24384;DHT22;12504;52.870;8.798;2022-10-24T08:17:34;16.20;99.90
24384;DHT22;12504;52.870;8.798;2022-10-24T08:20:05;16.10;99.90
24384;DHT22;12504;52.870;8.798;2022-10-24T08:22:30;16.10;99.90
24384;DHT22;12504;52.870;8.798;2022-10-24T08:24:58;16.10;99.90
24384;DHT22;12504;52.870;8.798;2022-10-24T08:27:24;16.10;99.90
24384;DHT22;12504;52.870;8.798;2022-10-24T08:29:49;16.30;99.90
24384;DHT22;12504;52.870;8.798;2022-10-24T08:32:15;16.30;99.90
24384;DHT22;12504;52.870;8.798;2022-10-24T08:34:41;16.20;99.90
24384;DHT22;12504;52.870;8.798;2022-10-24T08:37:06;16.30;99.90
24384;DHT22;12504;52.870;8.798;2022-10-24T08:39:32;16.30;99.90
24384;DHT22;12504;52.870;8.798;2022-10-24T08:42:01;16.60;99.90
24384;DHT22;12504;52.870;8.798;2022-10-24T08:46:58;16.40;99.90
24384;DHT22;12504;52.870;8.798;2022-10-24T08:49:29;16.50;99.90
24384;DHT22;12504;52.870;8.798;2022-10-24T08:52:00;16.30;99.90
24384;DHT22;12504;52.870;8.798;2022-10-24T08:54:28;16.30;99.90
24384;DHT22;12504;52.870;8.798;2022-10-24T08:56:55;16.50;99.90
24384;DHT22;12504;52.870;8.798;2022-10-24T08:59:22;16.30;99.90
24384;DHT22;12504;52.870;8.798;2022-10-24T09:01:50;16.60;99.90
24384;DHT22;12504;52.870;8.798;2022-10-24T09:04:18;16.50;99.90
24384;DHT22;12504;52.870;8.798;2022-10-24T09:06:44;16.70;99.90
24384;DHT22;12504;52.870;8.798;2022-10-24T09:09:14;16.70;99.90
24384;DHT22;12504;52.870;8.798;2022-10-24T09:14:21;17.00;99.90
24384;DHT22;12504;52.870;8.798;2022-10-24T09:16:48;17.10;99.90
24384;DHT22;12504;52.870;8.798;2022-10-24T09:19:17;17.00;99.90
24384;DHT22;12504;52.870;8.798;2022-10-24T09:21:43;17.20;99.90
24384;DHT22;12504;52.870;8.798;2022-10-24T09:24:16;17.50;99.90
24384;DHT22;12504;52.870;8.798;2022-10-24T09:26:44;17.60;99.90
24384;DHT22;12504;52.870;8.798;2022-10-24T09:29:10;17.70;99.90
24384;DHT22;12504;52.870;8.798;2022-10-24T09:31:36;17.60;99.90
24384;DHT22;12504;52.870;8.798;2022-10-24T09:34:02;17.70;99.90
24384;DHT22;12504;52.870;8.798;2022-10-24T09:36:28;17.80;99.90
24384;DHT22;12504;52.870;8.798;2022-10-24T09:38:54;17.70;99.90
24384;DHT22;12504;52.870;8.798;2022-10-24T09:41:29;17.80;99.90
24384;DHT22;12504;52.870;8.798;2022-10-24T09:43:58;18.00;99.90
24384;DHT22;12504;52.870;8.798;2022-10-24T09:46:28;17.80;99.90
24384;DHT22;12504;52.870;8.798;2022-10-24T09:49:00;17.90;99.90
24384;DHT22;12504;52.870;8.798;2022-10-24T09:51:31;17.90;99.90
24384;DHT22;12504;52.870;8.798;2022-10-24T09:56:33;18.20;99.90
24384;DHT22;12504;52.870;8.798;2022-10-24T09:59:14;18.10;99.90
24384;DHT22;12504;52.870;8.798;2022-10-24T10:01:41;18.20;99.90
24384;DHT22;12504;52.870;8.798;2022-10-24T10:04:10;18.30;99.90
24384;DHT22;12504;52.870;8.798;2022-10-24T10:06:42;18.40;99.90
24384;DHT22;12504;52.870;8.798;2022-10-24T10:09:10;18.30;99.90
24384;DHT22;12504;52.870;8.798;2022-10-24T10:11:37;18.40;99.90
24384;DHT22;12504;52.870;8.798;2022-10-24T10:14:02;18.40;99.90
24384;DHT22;12504;52.870;8.798;2022-10-24T10:16:33;18.40;99.90
24384;DHT22;12504;52.870;8.798;2022-10-24T10:21:27;18.40;99.90
24384;DHT22;12504;52.870;8.798;2022-10-24T10:23:54;18.50;96.20
24384;DHT22;12504;52.870;8.798;2022-10-24T10:26:27;18.60;96.90
24384;DHT22;12504;52.870;8.798;2022-10-24T10:28:54;18.50;96.10
24384;DHT22;12504;52.870;8.798;2022-10-24T10:31:25;18.40;99.90
24384;DHT22;12504;52.870;8.798;2022-10-24T10:34:10;18.40;98.00
24384;DHT22;12504;52.870;8.798;2022-10-24T10:41:55;17.90;99.90
24384;DHT22;12504;52.870;8.798;2022-10-24T10:44:39;17.80;99.90
24384;DHT22;12504;52.870;8.798;2022-10-24T10:47:20;17.80;99.90
24384;DHT22;12504;52.870;8.798;2022-10-24T10:49:49;18.00;99.90
24384;DHT22;12504;52.870;8.798;2022-10-24T10:52:21;18.00;99.90
24384;DHT22;12504;52.870;8.798;2022-10-24T10:57:20;18.30;97.60
24384;DHT22;12504;52.870;8.798;2022-10-24T11:02:35;18.10;99.90
24384;DHT22;12504;52.870;8.798;2022-10-24T11:10:39;18.30;96.80
24384;DHT22;12504;52.870;8.798;2022-10-24T11:13:08;18.20;99.90
24384;DHT22;12504;52.870;8.798;2022-10-24T11:15:37;18.10;95.10
24384;DHT22;12504;52.870;8.798;2022-10-24T11:20:32;18.10;94.30
24384;DHT22;12504;52.870;8.798;2022-10-24T11:23:00;18.20;74.20
24384;DHT22;12504;52.870;8.798;2022-10-24T11:28:01;19.10;53.10
24384;DHT22;12504;52.870;8.798;2022-10-24T11:30:34;19.60;18.40
24384;DHT22;12504;52.870;8.798;2022-10-24T11:33:01;19.30;7.10
24384;DHT22;12504;52.870;8.798;2022-10-24T11:35:33;18.90;28.80
24384;DHT22;12504;52.870;8.798;2022-10-24T11:38:06;18.60;41.90
24384;DHT22;12504;52.870;8.798;2022-10-24T11:40:32;18.50;60.30
24384;DHT22;12504;52.870;8.798;2022-10-24T11:43:06;18.50;37.80
24384;DHT22;12504;52.870;8.798;2022-10-24T11:45:48;18.30;37.80
24384;DHT22;12504;52.870;8.798;2022-10-24T11:51:16;17.90;55.60
24384;DHT22;12504;52.870;8.798;2022-10-24T11:53:55;17.90;55.90
24384;DHT22;12504;52.870;8.798;2022-10-24T11:56:36;17.90;61.60
24384;DHT22;12504;52.870;8.798;2022-10-24T11:59:06;18.10;49.70
24384;DHT22;12504;52.870;8.798;2022-10-24T12:16:50;17.90;31.00
24384;DHT22;12504;52.870;8.798;2022-10-24T12:19:18;17.80;30.40
24384;DHT22;12504;52.870;8.798;2022-10-24T12:21:46;17.80;34.00
24384;DHT22;12504;52.870;8.798;2022-10-24T12:24:32;17.70;34.80
24384;DHT22;12504;52.870;8.798;2022-10-24T12:26:59;17.50;50.50
24384;DHT22;12504;52.870;8.798;2022-10-24T12:29:27;17.40;54.80
24384;DHT22;12504;52.870;8.798;2022-10-24T12:31:56;17.30;61.80
24384;DHT22;12504;52.870;8.798;2022-10-24T12:39:37;17.20;64.60
24384;DHT22;12504;52.870;8.798;2022-10-24T12:42:04;17.30;56.50
24384;DHT22;12504;52.870;8.798;2022-10-24T12:46:58;17.40;61.80
24384;DHT22;12504;52.870;8.798;2022-10-24T12:49:28;17.40;54.30
24384;DHT22;12504;52.870;8.798;2022-10-24T12:51:54;17.40;57.80
24384;DHT22;12504;52.870;8.798;2022-10-24T12:54:45;17.40;56.00
24384;DHT22;12504;52.870;8.798;2022-10-24T12:59:59;17.40;54.20
24384;DHT22;12504;52.870;8.798;2022-10-24T13:07:28;17.40;50.20
24384;DHT22;12504;52.870;8.798;2022-10-24T13:10:17;17.40;55.70
24384;DHT22;12504;52.870;8.798;2022-10-24T13:15:18;17.60;56.30
24384;DHT22;12504;52.870;8.798;2022-10-24T13:22:42;17.70;51.50
24384;DHT22;12504;52.870;8.798;2022-10-24T13:25:19;17.70;52.20
24384;DHT22;12504;52.870;8.798;2022-10-24T13:27:45;17.50;61.40
24384;DHT22;12504;52.870;8.798;2022-10-24T13:30:31;17.40;78.60
24384;DHT22;12504;52.870;8.798;2022-10-24T13:37:49;16.20;99.90
24384;DHT22;12504;52.870;8.798;2022-10-24T13:40:30;15.70;99.90
24384;DHT22;12504;52.870;8.798;2022-10-24T13:43:01;15.40;99.90
24384;DHT22;12504;52.870;8.798;2022-10-24T13:45:44;15.10;99.90
24384;DHT22;12504;52.870;8.798;2022-10-24T13:48:14;15.00;99.90
24384;DHT22;12504;52.870;8.798;2022-10-24T13:50:48;15.00;99.90
24384;DHT22;12504;52.870;8.798;2022-10-24T13:53:17;15.00;99.90
24384;DHT22;12504;52.870;8.798;2022-10-24T13:55:45;15.10;99.90
24384;DHT22;12504;52.870;8.798;2022-10-24T13:58:17;15.10;99.90
24384;DHT22;12504;52.870;8.798;2022-10-24T14:01:02;15.20;99.90
24384;DHT22;12504;52.870;8.798;2022-10-24T14:03:29;15.20;99.90
24384;DHT22;12504;52.870;8.798;2022-10-24T14:06:03;15.30;99.90
24384;DHT22;12504;52.870;8.798;2022-10-24T14:08:30;15.30;99.90
24384;DHT22;12504;52.870;8.798;2022-10-24T14:10:57;15.20;99.90
24384;DHT22;12504;52.870;8.798;2022-10-24T14:13:24;15.10;99.90
24384;DHT22;12504;52.870;8.798;2022-10-24T14:16:00;15.00;99.90
24384;DHT22;12504;52.870;8.798;2022-10-24T14:18:26;14.90;99.90
24384;DHT22;12504;52.870;8.798;2022-10-24T14:20:56;14.80;99.90
24384;DHT22;12504;52.870;8.798;2022-10-24T14:23:36;14.70;99.90
24384;DHT22;12504;52.870;8.798;2022-10-24T14:28:35;14.60;99.90
24384;DHT22;12504;52.870;8.798;2022-10-24T14:31:02;14.50;99.90
24384;DHT22;12504;52.870;8.798;2022-10-24T14:33:29;14.50;99.90
24384;DHT22;12504;52.870;8.798;2022-10-24T14:35:56;14.50;99.90
24384;DHT22;12504;52.870;8.798;2022-10-24T14:38:23;14.50;99.90
24384;DHT22;12504;52.870;8.798;2022-10-24T14:40:50;14.50;99.90
24384;DHT22;12504;52.870;8.798;2022-10-24T14:46:00;14.50;99.90
24384;DHT22;12504;52.870;8.798;2022-10-24T14:48:27;14.50;99.90
24384;DHT22;12504;52.870;8.798;2022-10-24T14:51:00;14.40;99.90
24384;DHT22;12504;52.870;8.798;2022-10-24T14:53:26;14.40;99.90
24384;DHT22;12504;52.870;8.798;2022-10-24T14:55:53;14.40;99.90
24384;DHT22;12504;52.870;8.798;2022-10-24T14:58:20;14.40;99.90
24384;DHT22;12504;52.870;8.798;2022-10-24T15:00:46;14.40;99.90
24384;DHT22;12504;52.870;8.798;2022-10-24T15:03:12;14.50;99.90
24384;DHT22;12504;52.870;8.798;2022-10-24T15:05:37;14.40;99.90
24384;DHT22;12504;52.870;8.798;2022-10-24T15:10:39;14.40;99.90
24384;DHT22;12504;52.870;8.798;2022-10-24T15:20:47;14.40;99.90
24384;DHT22;12504;52.870;8.798;2022-10-24T15:25:45;14.40;99.90
24384;DHT22;12504;52.870;8.798;2022-10-24T15:30:55;14.50;99.90
24384;DHT22;12504;52.870;8.798;2022-10-24T15:33:21;14.50;99.90
24384;DHT22;12504;52.870;8.798;2022-10-24T15:35:47;14.60;99.90
24384;DHT22;12504;52.870;8.798;2022-10-24T15:38:13;14.50;99.90
24384;DHT22;12504;52.870;8.798;2022-10-24T15:40:40;14.60;99.90
24384;DHT22;12504;52.870;8.798;2022-10-24T15:43:13;14.60;99.90
24384;DHT22;12504;52.870;8.798;2022-10-24T15:45:39;14.60;99.90
24384;DHT22;12504;52.870;8.798;2022-10-24T15:48:05;14.70;99.90
24384;DHT22;12504;52.870;8.798;2022-10-24T15:50:31;14.70;99.90
24384;DHT22;12504;52.870;8.798;2022-10-24T15:52:58;14.70;99.90
24384;DHT22;12504;52.870;8.798;2022-10-24T15:55:25;14.70;99.90
24384;DHT22;12504;52.870;8.798;2022-10-24T15:57:51;14.70;99.90
24384;DHT22;12504;52.870;8.798;2022-10-24T16:00:18;14.70;99.90
24384;DHT22;12504;52.870;8.798;2022-10-24T16:02:45;14.60;99.90
24384;DHT22;12504;52.870;8.798;2022-10-24T16:05:20;14.60;99.90
24384;DHT22;12504;52.870;8.798;2022-10-24T16:07:46;14.60;99.90
24384;DHT22;12504;52.870;8.798;2022-10-24T16:10:13;14.50;99.90
24384;DHT22;12504;52.870;8.798;2022-10-24T16:12:40;14.40;99.90
24384;DHT22;12504;52.870;8.798;2022-10-24T16:15:05;14.40;99.90
24384;DHT22;12504;52.870;8.798;2022-10-24T16:17:31;14.40;99.90
24384;DHT22;12504;52.870;8.798;2022-10-24T16:19:57;14.40;99.90
24384;DHT22;12504;52.870;8.798;2022-10-24T16:22:22;14.40;99.90
24384;DHT22;12504;52.870;8.798;2022-10-24T16:24:48;14.50;99.90
24384;DHT22;12504;52.870;8.798;2022-10-24T16:27:13;14.60;99.90
24384;DHT22;12504;52.870;8.798;2022-10-24T16:29:39;14.50;99.90
24384;DHT22;12504;52.870;8.798;2022-10-24T16:32:05;14.50;99.90
24384;DHT22;12504;52.870;8.798;2022-10-24T16:34:30;14.50;99.90
24384;DHT22;12504;52.870;8.798;2022-10-24T16:36:56;14.60;99.90
24384;DHT22;12504;52.870;8.798;2022-10-24T16:39:21;14.50;99.90
24384;DHT22;12504;52.870;8.798;2022-10-24T16:41:51;14.40;99.90
24384;DHT22;12504;52.870;8.798;2022-10-24T16:44:17;14.20;99.90
24384;DHT22;12504;52.870;8.798;2022-10-24T16:46:43;14.10;99.90
24384;DHT22;12504;52.870;8.798;2022-10-24T16:49:09;14.00;99.90
24384;DHT22;12504;52.870;8.798;2022-10-24T16:51:35;14.00;99.90
24384;DHT22;12504;52.870;8.798;2022-10-24T16:54:01;13.90;99.90
24384;DHT22;12504;52.870;8.798;2022-10-24T16:56:27;13.90;99.90
24384;DHT22;12504;52.870;8.798;2022-10-24T16:58:53;13.80;99.90
24384;DHT22;12504;52.870;8.798;2022-10-24T17:01:18;13.70;99.90
24384;DHT22;12504;52.870;8.798;2022-10-24T17:03:46;13.60;99.90
24384;DHT22;12504;52.870;8.798;2022-10-24T17:06:12;13.50;99.90
24384;DHT22;12504;52.870;8.798;2022-10-24T17:08:37;13.40;99.90
24384;DHT22;12504;52.870;8.798;2022-10-24T17:11:03;13.40;99.90
24384;DHT22;12504;52.870;8.798;2022-10-24T17:13:29;13.30;99.90
24384;DHT22;12504;52.870;8.798;2022-10-24T17:15:55;13.20;99.90
24384;DHT22;12504;52.870;8.798;2022-10-24T17:18:21;13.10;99.90
24384;DHT22;12504;52.870;8.798;2022-10-24T17:20:48;13.20;99.90
24384;DHT22;12504;52.870;8.798;2022-10-24T17:23:15;13.20;99.90
24384;DHT22;12504;52.870;8.798;2022-10-24T17:25:41;13.20;99.90
24384;DHT22;12504;52.870;8.798;2022-10-24T17:28:06;13.20;99.90
24384;DHT22;12504;52.870;8.798;2022-10-24T17:30:32;13.20;99.90
24384;DHT22;12504;52.870;8.798;2022-10-24T17:32:58;13.20;99.90